sensor_id;sensor_type;location;lat;lon;timestamp;temperature;humidity
5346;DHT22;2695;49.444;11.054;2023-07-30T00:00:22;19.20;99.90
5346;DHT22;2695;49.444;11.054;2023-07-30T00:02:49;19.20;99.90
5346;DHT22;2695;49.444;11.054;2023-07-30T00:05:19;19.20;99.90
5346;DHT22;2695;49.444;11.054;2023-07-30T00:07:47;19.20;99.90
5346;DHT22;2695;49.444;11.054;2023-07-30T00:10:15;19.20;99.90
5346;DHT22;2695;49.444;11.054;2023-07-30T00:12:43;19.20;99.90
5346;DHT22;2695;49.444;11.054;2023-07-30T00:15:11;19.20;99.90
5346;DHT22;2695;49.444;11.054;2023-07-30T00:17:40;19.30;99.90
5346;DHT22;2695;49.444;11.054;2023-07-30T00:20:09;19.30;99.90
5346;DHT22;2695;49.444;11.054;2023-07-30T00:22:38;19.30;99.90
5346;DHT22;2695;49.444;11.054;2023-07-30T00:25:07;19.30;99.90
5346;DHT22;2695;49.444;11.054;2023-07-30T00:27:36;19.40;99.90
5346;DHT22;2695;49.444;11.054;2023-07-30T00:30:05;19.50;99.90
5346;DHT22;2695;49.444;11.054;2023-07-30T00:32:33;19.40;99.90
5346;DHT22;2695;49.444;11.054;2023-07-30T00:35:01;19.40;99.90
5346;DHT22;2695;49.444;11.054;2023-07-30T00:37:30;19.50;99.90
5346;DHT22;2695;49.444;11.054;2023-07-30T00:39:59;19.50;99.90
5346;DHT22;2695;49.444;11.054;2023-07-30T00:42:27;19.50;99.90
5346;DHT22;2695;49.444;11.054;2023-07-30T00:44:55;19.50;99.90
5346;DHT22;2695;49.444;11.054;2023-07-30T00:47:23;19.60;99.90
5346;DHT22;2695;49.444;11.054;2023-07-30T00:49:52;19.50;99.90
5346;DHT22;2695;49.444;11.054;2023-07-30T00:52:21;19.50;99.90
5346;DHT22;2695;49.444;11.054;2023-07-30T00:54:52;19.50;99.90
5346;DHT22;2695;49.444;11.054;2023-07-30T00:57:21;19.50;99.90
5346;DHT22;2695;49.444;11.054;2023-07-30T00:59:50;19.50;99.90
5346;DHT22;2695;49.444;11.054;2023-07-30T01:02:18;19.50;99.90
5346;DHT22;2695;49.444;11.054;2023-07-30T01:04:47;19.50;99.90
5346;DHT22;2695;49.444;11.054;2023-07-30T01:07:15;19.40;99.90
5346;DHT22;2695;49.444;11.054;2023-07-30T01:09:43;19.40;99.90
5346;DHT22;2695;49.444;11.054;2023-07-30T01:12:11;19.40;99.90
5346;DHT22;2695;49.444;11.054;2023-07-30T01:14:43;19.40;99.90
5346;DHT22;2695;49.444;11.054;2023-07-30T01:17:11;19.30;99.90
5346;DHT22;2695;49.444;11.054;2023-07-30T01:19:39;19.30;99.90
5346;DHT22;2695;49.444;11.054;2023-07-30T01:22:09;19.30;99.90
5346;DHT22;2695;49.444;11.054;2023-07-30T01:24:37;19.00;99.90
5346;DHT22;2695;49.444;11.054;2023-07-30T01:27:07;18.70;99.90
5346;DHT22;2695;49.444;11.054;2023-07-30T01:29:41;18.60;99.90
5346;DHT22;2695;49.444;11.054;2023-07-30T01:32:11;18.60;99.90
5346;DHT22;2695;49.444;11.054;2023-07-30T01:34:41;18.50;99.90
5346;DHT22;2695;49.444;11.054;2023-07-30T01:37:12;18.50;99.90
5346;DHT22;2695;49.444;11.054;2023-07-30T01:39:41;18.60;99.90
5346;DHT22;2695;49.444;11.054;2023-07-30T01:42:11;18.50;99.90
5346;DHT22;2695;49.444;11.054;2023-07-30T01:44:40;18.60;99.90
5346;DHT22;2695;49.444;11.054;2023-07-30T01:47:08;18.60;99.90
5346;DHT22;2695;49.444;11.054;2023-07-30T01:49:36;18.60;99.90
5346;DHT22;2695;49.444;11.054;2023-07-30T01:52:04;18.70;99.90
5346;DHT22;2695;49.444;11.054;2023-07-30T01:54:34;18.70;99.90
5346;DHT22;2695;49.444;11.054;2023-07-30T01:57:02;18.70;99.90
5346;DHT22;2695;49.444;11.054;2023-07-30T01:59:30;18.60;99.90
5346;DHT22;2695;49.444;11.054;2023-07-30T02:01:58;18.60;99.90
5346;DHT22;2695;49.444;11.054;2023-07-30T02:04:27;18.70;99.90
5346;DHT22;2695;49.444;11.054;2023-07-30T02:06:55;18.50;99.90
5346;DHT22;2695;49.444;11.054;2023-07-30T02:09:23;18.40;99.90
5346;DHT22;2695;49.444;11.054;2023-07-30T02:11:53;18.30;99.90
5346;DHT22;2695;49.444;11.054;2023-07-30T02:14:21;18.30;99.90
5346;DHT22;2695;49.444;11.054;2023-07-30T02:16:49;18.30;99.90
5346;DHT22;2695;49.444;11.054;2023-07-30T02:19:17;18.40;99.90
5346;DHT22;2695;49.444;11.054;2023-07-30T02:21:46;18.30;99.90
5346;DHT22;2695;49.444;11.054;2023-07-30T02:24:14;18.30;99.90
5346;DHT22;2695;49.444;11.054;2023-07-30T02:26:42;18.20;99.90
5346;DHT22;2695;49.444;11.054;2023-07-30T02:29:11;18.10;99.90
5346;DHT22;2695;49.444;11.054;2023-07-30T02:31:40;18.20;99.90
5346;DHT22;2695;49.444;11.054;2023-07-30T02:34:08;18.00;99.90
5346;DHT22;2695;49.444;11.054;2023-07-30T02:36:36;18.00;99.90
5346;DHT22;2695;49.444;11.054;2023-07-30T02:39:04;18.00;99.90
5346;DHT22;2695;49.444;11.054;2023-07-30T02:41:32;18.10;99.90
5346;DHT22;2695;49.444;11.054;2023-07-30T02:44:01;18.10;99.90
5346;DHT22;2695;49.444;11.054;2023-07-30T02:46:31;18.10;99.90
5346;DHT22;2695;49.444;11.054;2023-07-30T02:48:59;18.00;99.90
5346;DHT22;2695;49.444;11.054;2023-07-30T02:51:27;18.00;99.90
5346;DHT22;2695;49.444;11.054;2023-07-30T02:53:57;18.00;99.90
5346;DHT22;2695;49.444;11.054;2023-07-30T02:56:26;18.00;99.90
5346;DHT22;2695;49.444;11.054;2023-07-30T02:58:54;18.10;99.90
5346;DHT22;2695;49.444;11.054;2023-07-30T03:01:22;18.10;99.90
5346;DHT22;2695;49.444;11.054;2023-07-30T03:03:51;18.10;99.90
5346;DHT22;2695;49.444;11.054;2023-07-30T03:06:20;18.10;99.90
5346;DHT22;2695;49.444;11.054;2023-07-30T03:08:48;18.00;99.90
5346;DHT22;2695;49.444;11.054;2023-07-30T03:11:16;18.00;99.90
5346;DHT22;2695;49.444;11.054;2023-07-30T03:13:44;18.00;99.90
5346;DHT22;2695;49.444;11.054;2023-07-30T03:16:12;18.00;99.90
5346;DHT22;2695;49.444;11.054;2023-07-30T03:18:40;18.00;99.90
5346;DHT22;2695;49.444;11.054;2023-07-30T03:21:10;17.90;99.90
5346;DHT22;2695;49.444;11.054;2023-07-30T03:23:38;18.00;99.90
5346;DHT22;2695;49.444;11.054;2023-07-30T03:26:07;18.00;99.90
5346;DHT22;2695;49.444;11.054;2023-07-30T03:28:35;18.00;99.90
5346;DHT22;2695;49.444;11.054;2023-07-30T03:31:06;18.00;99.90
5346;DHT22;2695;49.444;11.054;2023-07-30T03:33:35;18.00;99.90
5346;DHT22;2695;49.444;11.054;2023-07-30T03:36:03;18.00;99.90
5346;DHT22;2695;49.444;11.054;2023-07-30T03:38:32;18.00;99.90
5346;DHT22;2695;49.444;11.054;2023-07-30T03:41:01;17.90;99.90
5346;DHT22;2695;49.444;11.054;2023-07-30T03:43:29;17.90;99.90
5346;DHT22;2695;49.444;11.054;2023-07-30T03:45:57;17.90;99.90
5346;DHT22;2695;49.444;11.054;2023-07-30T03:48:25;17.90;99.90
5346;DHT22;2695;49.444;11.054;2023-07-30T03:50:54;17.90;99.90
5346;DHT22;2695;49.444;11.054;2023-07-30T03:53:25;17.90;99.90
5346;DHT22;2695;49.444;11.054;2023-07-30T03:55:55;17.80;99.90
5346;DHT22;2695;49.444;11.054;2023-07-30T03:58:23;17.80;99.90
5346;DHT22;2695;49.444;11.054;2023-07-30T04:00:51;17.90;99.90
5346;DHT22;2695;49.444;11.054;2023-07-30T04:03:19;17.80;99.90
5346;DHT22;2695;49.444;11.054;2023-07-30T04:05:48;17.80;99.90
5346;DHT22;2695;49.444;11.054;2023-07-30T04:08:16;17.80;99.90
5346;DHT22;2695;49.444;11.054;2023-07-30T04:10:44;17.80;99.90
5346;DHT22;2695;49.444;11.054;2023-07-30T04:13:13;17.80;99.90
5346;DHT22;2695;49.444;11.054;2023-07-30T04:15:42;17.90;99.90
5346;DHT22;2695;49.444;11.054;2023-07-30T04:18:10;17.90;99.90
5346;DHT22;2695;49.444;11.054;2023-07-30T04:20:38;17.90;99.90
5346;DHT22;2695;49.444;11.054;2023-07-30T04:23:06;17.90;99.90
5346;DHT22;2695;49.444;11.054;2023-07-30T04:25:34;17.90;99.90
5346;DHT22;2695;49.444;11.054;2023-07-30T04:28:02;17.90;99.90
5346;DHT22;2695;49.444;11.054;2023-07-30T04:30:32;17.90;99.90
5346;DHT22;2695;49.444;11.054;2023-07-30T04:33:00;17.90;99.90
5346;DHT22;2695;49.444;11.054;2023-07-30T04:35:28;17.90;99.90
5346;DHT22;2695;49.444;11.054;2023-07-30T04:37:56;17.90;99.90
5346;DHT22;2695;49.444;11.054;2023-07-30T04:40:25;18.00;99.90
5346;DHT22;2695;49.444;11.054;2023-07-30T04:42:53;18.10;99.90
5346;DHT22;2695;49.444;11.054;2023-07-30T04:45:21;18.60;99.90
5346;DHT22;2695;49.444;11.054;2023-07-30T04:47:51;19.80;99.90
5346;DHT22;2695;49.444;11.054;2023-07-30T04:50:19;20.90;99.90
5346;DHT22;2695;49.444;11.054;2023-07-30T04:52:47;21.00;99.90
5346;DHT22;2695;49.444;11.054;2023-07-30T04:55:15;21.40;99.90
5346;DHT22;2695;49.444;11.054;2023-07-30T04:57:44;22.00;99.90
5346;DHT22;2695;49.444;11.054;2023-07-30T05:00:12;22.60;99.90
5346;DHT22;2695;49.444;11.054;2023-07-30T05:02:40;22.80;99.90
5346;DHT22;2695;49.444;11.054;2023-07-30T05:05:10;22.70;99.90
5346;DHT22;2695;49.444;11.054;2023-07-30T05:07:38;22.80;99.90
5346;DHT22;2695;49.444;11.054;2023-07-30T05:10:07;23.20;99.90
5346;DHT22;2695;49.444;11.054;2023-07-30T05:12:37;23.70;99.90
5346;DHT22;2695;49.444;11.054;2023-07-30T05:15:06;23.70;99.90
5346;DHT22;2695;49.444;11.054;2023-07-30T05:17:35;23.40;99.90
5346;DHT22;2695;49.444;11.054;2023-07-30T05:20:04;22.90;99.90
5346;DHT22;2695;49.444;11.054;2023-07-30T05:22:34;22.40;99.90
5346;DHT22;2695;49.444;11.054;2023-07-30T05:25:02;22.00;99.90
5346;DHT22;2695;49.444;11.054;2023-07-30T05:27:31;21.80;99.90
5346;DHT22;2695;49.444;11.054;2023-07-30T05:29:59;21.70;99.90
5346;DHT22;2695;49.444;11.054;2023-07-30T05:32:27;22.10;99.90
5346;DHT22;2695;49.444;11.054;2023-07-30T05:34:55;22.30;99.90
5346;DHT22;2695;49.444;11.054;2023-07-30T05:37:24;22.30;99.90
5346;DHT22;2695;49.444;11.054;2023-07-30T05:39:54;22.70;99.90
5346;DHT22;2695;49.444;11.054;2023-07-30T05:42:22;23.80;99.90
5346;DHT22;2695;49.444;11.054;2023-07-30T05:44:51;24.40;99.90
5346;DHT22;2695;49.444;11.054;2023-07-30T05:47:22;24.00;99.90
5346;DHT22;2695;49.444;11.054;2023-07-30T05:49:58;23.60;99.90
5346;DHT22;2695;49.444;11.054;2023-07-30T05:52:29;23.20;99.90
5346;DHT22;2695;49.444;11.054;2023-07-30T05:54:59;23.70;99.90
5346;DHT22;2695;49.444;11.054;2023-07-30T05:57:28;25.30;99.90
5346;DHT22;2695;49.444;11.054;2023-07-30T05:59:57;26.90;99.90
5346;DHT22;2695;49.444;11.054;2023-07-30T06:02:25;28.20;99.90
5346;DHT22;2695;49.444;11.054;2023-07-30T06:04:54;28.90;99.90
5346;DHT22;2695;49.444;11.054;2023-07-30T06:07:22;29.10;99.90
5346;DHT22;2695;49.444;11.054;2023-07-30T06:09:50;28.80;99.90
5346;DHT22;2695;49.444;11.054;2023-07-30T06:12:20;28.50;99.90
5346;DHT22;2695;49.444;11.054;2023-07-30T06:14:48;28.20;99.90
5346;DHT22;2695;49.444;11.054;2023-07-30T06:17:19;27.60;99.90
5346;DHT22;2695;49.444;11.054;2023-07-30T06:19:53;26.90;99.90
5346;DHT22;2695;49.444;11.054;2023-07-30T06:22:25;26.60;99.90
5346;DHT22;2695;49.444;11.054;2023-07-30T06:25:00;26.40;99.90
5346;DHT22;2695;49.444;11.054;2023-07-30T06:27:30;26.70;99.90
5346;DHT22;2695;49.444;11.054;2023-07-30T06:30:26;27.00;99.90
5346;DHT22;2695;49.444;11.054;2023-07-30T06:32:54;27.60;99.90
5346;DHT22;2695;49.444;11.054;2023-07-30T06:35:24;27.90;99.90
5346;DHT22;2695;49.444;11.054;2023-07-30T06:37:53;27.80;99.90
5346;DHT22;2695;49.444;11.054;2023-07-30T06:40:31;27.50;99.90
5346;DHT22;2695;49.444;11.054;2023-07-30T06:42:59;26.90;99.90
5346;DHT22;2695;49.444;11.054;2023-07-30T06:45:29;26.30;99.90
5346;DHT22;2695;49.444;11.054;2023-07-30T06:47:57;25.80;99.90
5346;DHT22;2695;49.444;11.054;2023-07-30T06:54:23;25.10;99.90
5346;DHT22;2695;49.444;11.054;2023-07-30T06:56:51;24.60;99.90
5346;DHT22;2695;49.444;11.054;2023-07-30T06:59:19;24.30;99.90
5346;DHT22;2695;49.444;11.054;2023-07-30T07:01:48;24.10;99.90
5346;DHT22;2695;49.444;11.054;2023-07-30T07:04:16;24.10;99.90
5346;DHT22;2695;49.444;11.054;2023-07-30T07:06:44;24.10;99.90
5346;DHT22;2695;49.444;11.054;2023-07-30T07:09:12;24.20;99.90
5346;DHT22;2695;49.444;11.054;2023-07-30T07:12:00;24.30;99.90
5346;DHT22;2695;49.444;11.054;2023-07-30T07:14:39;24.20;99.90
5346;DHT22;2695;49.444;11.054;2023-07-30T07:17:19;24.10;99.90
5346;DHT22;2695;49.444;11.054;2023-07-30T07:19:47;23.80;99.90
5346;DHT22;2695;49.444;11.054;2023-07-30T07:22:21;23.80;99.90
5346;DHT22;2695;49.444;11.054;2023-07-30T07:24:51;23.60;99.90
5346;DHT22;2695;49.444;11.054;2023-07-30T07:27:20;23.40;99.90
5346;DHT22;2695;49.444;11.054;2023-07-30T07:29:50;23.30;99.90
5346;DHT22;2695;49.444;11.054;2023-07-30T07:32:31;23.10;99.90
5346;DHT22;2695;49.444;11.054;2023-07-30T07:35:08;23.00;99.90
5346;DHT22;2695;49.444;11.054;2023-07-30T07:37:36;22.90;99.90
5346;DHT22;2695;49.444;11.054;2023-07-30T07:40:23;22.90;99.90
5346;DHT22;2695;49.444;11.054;2023-07-30T07:42:52;22.90;99.90
5346;DHT22;2695;49.444;11.054;2023-07-30T07:45:20;23.00;99.90
5346;DHT22;2695;49.444;11.054;2023-07-30T07:47:50;23.20;99.90
5346;DHT22;2695;49.444;11.054;2023-07-30T07:50:18;23.40;99.90
5346;DHT22;2695;49.444;11.054;2023-07-30T07:52:46;23.50;99.90
5346;DHT22;2695;49.444;11.054;2023-07-30T07:55:14;23.50;99.90
5346;DHT22;2695;49.444;11.054;2023-07-30T07:57:42;23.40;99.90
5346;DHT22;2695;49.444;11.054;2023-07-30T08:00:11;23.50;99.90
5346;DHT22;2695;49.444;11.054;2023-07-30T08:02:40;23.50;99.90
5346;DHT22;2695;49.444;11.054;2023-07-30T08:05:10;23.70;99.90
5346;DHT22;2695;49.444;11.054;2023-07-30T08:07:38;23.90;99.90
5346;DHT22;2695;49.444;11.054;2023-07-30T08:10:28;24.20;99.90
5346;DHT22;2695;49.444;11.054;2023-07-30T08:12:57;24.60;99.90
5346;DHT22;2695;49.444;11.054;2023-07-30T08:15:26;24.80;99.90
5346;DHT22;2695;49.444;11.054;2023-07-30T08:18:16;24.90;99.90
5346;DHT22;2695;49.444;11.054;2023-07-30T08:20:46;24.90;99.90
5346;DHT22;2695;49.444;11.054;2023-07-30T08:23:14;24.70;99.90
5346;DHT22;2695;49.444;11.054;2023-07-30T08:26:04;24.60;99.90
5346;DHT22;2695;49.444;11.054;2023-07-30T08:28:32;24.50;99.90
5346;DHT22;2695;49.444;11.054;2023-07-30T08:31:01;24.50;99.90
5346;DHT22;2695;49.444;11.054;2023-07-30T08:33:29;24.60;99.90
5346;DHT22;2695;49.444;11.054;2023-07-30T08:35:59;24.90;99.90
5346;DHT22;2695;49.444;11.054;2023-07-30T08:38:28;25.10;99.90
5346;DHT22;2695;49.444;11.054;2023-07-30T08:40:57;25.30;99.90
5346;DHT22;2695;49.444;11.054;2023-07-30T08:43:25;25.80;99.90
5346;DHT22;2695;49.444;11.054;2023-07-30T08:45:54;26.20;99.90
5346;DHT22;2695;49.444;11.054;2023-07-30T08:48:28;26.40;99.90
5346;DHT22;2695;49.444;11.054;2023-07-30T08:50:59;26.20;99.90
5346;DHT22;2695;49.444;11.054;2023-07-30T08:53:29;25.90;99.90
5346;DHT22;2695;49.444;11.054;2023-07-30T08:55:58;25.70;99.90
5346;DHT22;2695;49.444;11.054;2023-07-30T08:58:27;25.50;99.90
5346;DHT22;2695;49.444;11.054;2023-07-30T09:00:57;25.70;99.90
5346;DHT22;2695;49.444;11.054;2023-07-30T09:03:27;25.80;99.90
5346;DHT22;2695;49.444;11.054;2023-07-30T09:06:15;26.20;99.90
5346;DHT22;2695;49.444;11.054;2023-07-30T09:08:48;26.50;99.90
5346;DHT22;2695;49.444;11.054;2023-07-30T09:11:17;26.70;99.90
5346;DHT22;2695;49.444;11.054;2023-07-30T09:13:45;27.40;99.90
5346;DHT22;2695;49.444;11.054;2023-07-30T09:16:14;28.60;99.90
5346;DHT22;2695;49.444;11.054;2023-07-30T09:18:45;29.90;99.90
5346;DHT22;2695;49.444;11.054;2023-07-30T09:21:29;31.50;99.50
5346;DHT22;2695;49.444;11.054;2023-07-30T09:24:21;33.10;94.30
5346;DHT22;2695;49.444;11.054;2023-07-30T09:26:49;34.40;86.00
5346;DHT22;2695;49.444;11.054;2023-07-30T09:29:18;34.80;80.10
5346;DHT22;2695;49.444;11.054;2023-07-30T09:31:51;34.80;77.10
5346;DHT22;2695;49.444;11.054;2023-07-30T09:34:24;34.80;72.90
5346;DHT22;2695;49.444;11.054;2023-07-30T09:36:56;34.50;72.30
5346;DHT22;2695;49.444;11.054;2023-07-30T09:39:38;34.00;72.00
5346;DHT22;2695;49.444;11.054;2023-07-30T09:42:46;33.90;71.70
5346;DHT22;2695;49.444;11.054;2023-07-30T09:45:23;33.60;72.40
5346;DHT22;2695;49.444;11.054;2023-07-30T09:47:53;33.20;72.70
5346;DHT22;2695;49.444;11.054;2023-07-30T09:50:23;32.50;74.80
5346;DHT22;2695;49.444;11.054;2023-07-30T09:52:54;31.60;78.20
5346;DHT22;2695;49.444;11.054;2023-07-30T09:55:22;30.70;82.00
5346;DHT22;2695;49.444;11.054;2023-07-30T09:57:50;31.30;83.50
5346;DHT22;2695;49.444;11.054;2023-07-30T10:00:18;32.60;79.50
5346;DHT22;2695;49.444;11.054;2023-07-30T10:02:47;32.50;77.70
5346;DHT22;2695;49.444;11.054;2023-07-30T10:05:18;31.60;79.90
5346;DHT22;2695;49.444;11.054;2023-07-30T10:07:50;30.60;82.80
5346;DHT22;2695;49.444;11.054;2023-07-30T10:10:21;30.00;86.20
5346;DHT22;2695;49.444;11.054;2023-07-30T10:12:51;29.50;87.70
5346;DHT22;2695;49.444;11.054;2023-07-30T10:15:20;29.20;89.60
5346;DHT22;2695;49.444;11.054;2023-07-30T10:17:50;28.90;90.70
5346;DHT22;2695;49.444;11.054;2023-07-30T10:20:24;28.60;93.70
5346;DHT22;2695;49.444;11.054;2023-07-30T10:22:54;28.10;94.50
5346;DHT22;2695;49.444;11.054;2023-07-30T10:25:29;27.30;98.90
5346;DHT22;2695;49.444;11.054;2023-07-30T10:27:58;26.30;99.90
5346;DHT22;2695;49.444;11.054;2023-07-30T10:30:31;25.50;99.90
5346;DHT22;2695;49.444;11.054;2023-07-30T10:33:01;24.70;99.90
5346;DHT22;2695;49.444;11.054;2023-07-30T10:35:38;24.10;99.90
5346;DHT22;2695;49.444;11.054;2023-07-30T10:38:13;23.70;99.90
5346;DHT22;2695;49.444;11.054;2023-07-30T10:40:59;23.30;99.90
5346;DHT22;2695;49.444;11.054;2023-07-30T10:43:28;22.80;99.90
5346;DHT22;2695;49.444;11.054;2023-07-30T10:45:57;22.40;99.90
5346;DHT22;2695;49.444;11.054;2023-07-30T10:48:32;22.00;99.90
5346;DHT22;2695;49.444;11.054;2023-07-30T10:51:02;21.70;99.90
5346;DHT22;2695;49.444;11.054;2023-07-30T10:53:30;21.70;99.90
5346;DHT22;2695;49.444;11.054;2023-07-30T10:56:00;21.80;99.90
5346;DHT22;2695;49.444;11.054;2023-07-30T10:58:30;22.20;99.90
5346;DHT22;2695;49.444;11.054;2023-07-30T11:00:58;22.70;99.90
5346;DHT22;2695;49.444;11.054;2023-07-30T11:03:27;23.50;99.90
5346;DHT22;2695;49.444;11.054;2023-07-30T11:05:55;24.40;99.90
5346;DHT22;2695;49.444;11.054;2023-07-30T11:08:32;25.10;99.90
5346;DHT22;2695;49.444;11.054;2023-07-30T11:11:03;25.60;99.90
5346;DHT22;2695;49.444;11.054;2023-07-30T11:13:35;25.80;99.90
5346;DHT22;2695;49.444;11.054;2023-07-30T11:16:04;25.90;99.90
5346;DHT22;2695;49.444;11.054;2023-07-30T11:18:33;25.90;99.90
5346;DHT22;2695;49.444;11.054;2023-07-30T11:21:05;25.90;99.90
5346;DHT22;2695;49.444;11.054;2023-07-30T11:23:34;25.80;99.90
5346;DHT22;2695;49.444;11.054;2023-07-30T11:26:07;25.70;99.90
5346;DHT22;2695;49.444;11.054;2023-07-30T11:28:36;25.60;99.90
5346;DHT22;2695;49.444;11.054;2023-07-30T11:31:06;25.50;99.90
5346;DHT22;2695;49.444;11.054;2023-07-30T11:33:36;25.40;99.90
5346;DHT22;2695;49.444;11.054;2023-07-30T11:36:06;25.40;99.90
5346;DHT22;2695;49.444;11.054;2023-07-30T11:38:35;25.90;99.90
5346;DHT22;2695;49.444;11.054;2023-07-30T11:41:03;26.50;99.90
5346;DHT22;2695;49.444;11.054;2023-07-30T11:43:36;26.80;99.90
5346;DHT22;2695;49.444;11.054;2023-07-30T11:46:08;26.80;99.90
5346;DHT22;2695;49.444;11.054;2023-07-30T11:48:37;26.90;99.90
5346;DHT22;2695;49.444;11.054;2023-07-30T11:51:05;26.90;99.90
5346;DHT22;2695;49.444;11.054;2023-07-30T11:53:47;26.80;99.90
5346;DHT22;2695;49.444;11.054;2023-07-30T11:56:20;26.90;99.90
5346;DHT22;2695;49.444;11.054;2023-07-30T11:58:54;26.90;99.90
5346;DHT22;2695;49.444;11.054;2023-07-30T12:01:24;26.60;99.90
5346;DHT22;2695;49.444;11.054;2023-07-30T12:03:54;26.30;99.90
5346;DHT22;2695;49.444;11.054;2023-07-30T12:06:23;26.20;99.90
5346;DHT22;2695;49.444;11.054;2023-07-30T12:08:51;26.60;99.90
5346;DHT22;2695;49.444;11.054;2023-07-30T12:11:19;27.00;99.90
5346;DHT22;2695;49.444;11.054;2023-07-30T12:13:47;27.00;99.90
5346;DHT22;2695;49.444;11.054;2023-07-30T12:16:18;26.80;99.90
5346;DHT22;2695;49.444;11.054;2023-07-30T12:18:48;26.60;99.90
5346;DHT22;2695;49.444;11.054;2023-07-30T12:21:16;26.40;99.90
5346;DHT22;2695;49.444;11.054;2023-07-30T12:23:44;26.50;99.90
5346;DHT22;2695;49.444;11.054;2023-07-30T12:26:12;26.90;99.90
5346;DHT22;2695;49.444;11.054;2023-07-30T12:28:40;27.30;99.90
5346;DHT22;2695;49.444;11.054;2023-07-30T12:31:08;27.30;99.90
5346;DHT22;2695;49.444;11.054;2023-07-30T12:33:38;27.20;99.90
5346;DHT22;2695;49.444;11.054;2023-07-30T12:36:06;27.20;99.90
5346;DHT22;2695;49.444;11.054;2023-07-30T12:38:34;27.20;99.90
5346;DHT22;2695;49.444;11.054;2023-07-30T12:41:02;27.10;99.90
5346;DHT22;2695;49.444;11.054;2023-07-30T12:43:30;27.00;99.90
5346;DHT22;2695;49.444;11.054;2023-07-30T12:45:58;27.10;99.70
5346;DHT22;2695;49.444;11.054;2023-07-30T12:48:26;27.20;98.10
5346;DHT22;2695;49.444;11.054;2023-07-30T12:50:55;27.20;97.10
5346;DHT22;2695;49.444;11.054;2023-07-30T12:53:24;27.10;96.60
5346;DHT22;2695;49.444;11.054;2023-07-30T12:55:52;26.90;96.60
5346;DHT22;2695;49.444;11.054;2023-07-30T12:58:20;26.60;97.20
5346;DHT22;2695;49.444;11.054;2023-07-30T13:00:48;26.20;97.90
5346;DHT22;2695;49.444;11.054;2023-07-30T13:03:16;26.00;98.40
5346;DHT22;2695;49.444;11.054;2023-07-30T13:05:44;25.80;98.80
5346;DHT22;2695;49.444;11.054;2023-07-30T13:08:14;25.80;99.50
5346;DHT22;2695;49.444;11.054;2023-07-30T13:10:42;25.70;98.90
5346;DHT22;2695;49.444;11.054;2023-07-30T13:13:10;25.60;99.70
5346;DHT22;2695;49.444;11.054;2023-07-30T13:15:38;25.60;99.90
5346;DHT22;2695;49.444;11.054;2023-07-30T13:18:06;25.60;99.90
5346;DHT22;2695;49.444;11.054;2023-07-30T13:20:34;25.60;99.90
5346;DHT22;2695;49.444;11.054;2023-07-30T13:23:02;25.60;99.60
5346;DHT22;2695;49.444;11.054;2023-07-30T13:25:31;25.60;99.90
5346;DHT22;2695;49.444;11.054;2023-07-30T13:28:00;25.50;99.90
5346;DHT22;2695;49.444;11.054;2023-07-30T13:30:27;25.50;98.80
5346;DHT22;2695;49.444;11.054;2023-07-30T13:32:56;25.40;97.70
5346;DHT22;2695;49.444;11.054;2023-07-30T13:35:24;25.40;97.60
5346;DHT22;2695;49.444;11.054;2023-07-30T13:37:52;25.30;97.90
5346;DHT22;2695;49.444;11.054;2023-07-30T13:40:20;25.30;96.80
5346;DHT22;2695;49.444;11.054;2023-07-30T13:42:50;25.20;97.60
5346;DHT22;2695;49.444;11.054;2023-07-30T13:45:18;25.20;96.30
5346;DHT22;2695;49.444;11.054;2023-07-30T13:47:46;25.30;95.90
5346;DHT22;2695;49.444;11.054;2023-07-30T13:50:14;25.50;95.50
5346;DHT22;2695;49.444;11.054;2023-07-30T13:52:43;25.70;95.80
5346;DHT22;2695;49.444;11.054;2023-07-30T13:55:11;25.60;95.30
5346;DHT22;2695;49.444;11.054;2023-07-30T13:57:39;25.60;94.50
5346;DHT22;2695;49.444;11.054;2023-07-30T14:00:10;25.60;94.40
5346;DHT22;2695;49.444;11.054;2023-07-30T14:02:38;25.50;95.20
5346;DHT22;2695;49.444;11.054;2023-07-30T14:05:07;25.50;94.40
5346;DHT22;2695;49.444;11.054;2023-07-30T14:07:36;25.40;95.20
5346;DHT22;2695;49.444;11.054;2023-07-30T14:10:04;25.20;96.70
5346;DHT22;2695;49.444;11.054;2023-07-30T14:12:33;25.00;97.70
5346;DHT22;2695;49.444;11.054;2023-07-30T14:15:01;25.00;97.80
5346;DHT22;2695;49.444;11.054;2023-07-30T14:17:31;25.00;98.40
5346;DHT22;2695;49.444;11.054;2023-07-30T14:19:59;25.00;98.30
5346;DHT22;2695;49.444;11.054;2023-07-30T14:22:27;25.20;98.00
5346;DHT22;2695;49.444;11.054;2023-07-30T14:24:55;25.40;98.00
5346;DHT22;2695;49.444;11.054;2023-07-30T14:27:24;25.60;95.60
5346;DHT22;2695;49.444;11.054;2023-07-30T14:29:52;25.60;95.50
5346;DHT22;2695;49.444;11.054;2023-07-30T14:32:21;25.40;96.20
5346;DHT22;2695;49.444;11.054;2023-07-30T14:34:50;25.30;96.00
5346;DHT22;2695;49.444;11.054;2023-07-30T14:37:18;25.20;96.80
5346;DHT22;2695;49.444;11.054;2023-07-30T14:39:46;25.20;95.90
5346;DHT22;2695;49.444;11.054;2023-07-30T14:42:14;25.20;96.10
5346;DHT22;2695;49.444;11.054;2023-07-30T14:44:42;25.30;95.10
5346;DHT22;2695;49.444;11.054;2023-07-30T14:47:10;25.40;95.20
5346;DHT22;2695;49.444;11.054;2023-07-30T14:49:39;25.50;95.40
5346;DHT22;2695;49.444;11.054;2023-07-30T14:52:08;25.50;95.00
5346;DHT22;2695;49.444;11.054;2023-07-30T14:54:37;25.50;94.10
5346;DHT22;2695;49.444;11.054;2023-07-30T14:57:05;25.40;94.40
5346;DHT22;2695;49.444;11.054;2023-07-30T14:59:33;25.40;93.90
5346;DHT22;2695;49.444;11.054;2023-07-30T15:02:01;25.30;94.60
5346;DHT22;2695;49.444;11.054;2023-07-30T15:04:30;25.20;93.70
5346;DHT22;2695;49.444;11.054;2023-07-30T15:06:58;25.40;94.40
5346;DHT22;2695;49.444;11.054;2023-07-30T15:09:27;25.50;94.80
5346;DHT22;2695;49.444;11.054;2023-07-30T15:12:00;25.60;94.90
5346;DHT22;2695;49.444;11.054;2023-07-30T15:14:29;25.60;95.00
5346;DHT22;2695;49.444;11.054;2023-07-30T15:16:56;25.60;95.50
5346;DHT22;2695;49.444;11.054;2023-07-30T15:19:24;25.50;94.50
5346;DHT22;2695;49.444;11.054;2023-07-30T15:21:52;25.30;93.40
5346;DHT22;2695;49.444;11.054;2023-07-30T15:24:20;25.10;91.40
5346;DHT22;2695;49.444;11.054;2023-07-30T15:26:50;25.00;90.80
5346;DHT22;2695;49.444;11.054;2023-07-30T15:29:18;25.00;90.60
5346;DHT22;2695;49.444;11.054;2023-07-30T15:31:48;24.80;91.10
5346;DHT22;2695;49.444;11.054;2023-07-30T15:34:17;24.60;91.50
5346;DHT22;2695;49.444;11.054;2023-07-30T15:36:45;24.60;91.80
5346;DHT22;2695;49.444;11.054;2023-07-30T15:39:13;24.50;91.60
5346;DHT22;2695;49.444;11.054;2023-07-30T15:41:41;24.60;91.40
5346;DHT22;2695;49.444;11.054;2023-07-30T15:44:10;24.60;90.80
5346;DHT22;2695;49.444;11.054;2023-07-30T15:46:38;24.60;91.00
5346;DHT22;2695;49.444;11.054;2023-07-30T15:49:07;24.40;90.70
5346;DHT22;2695;49.444;11.054;2023-07-30T15:51:35;24.60;90.60
5346;DHT22;2695;49.444;11.054;2023-07-30T15:54:03;24.60;90.20
5346;DHT22;2695;49.444;11.054;2023-07-30T15:56:31;24.50;89.80
5346;DHT22;2695;49.444;11.054;2023-07-30T15:58:59;24.30;90.40
5346;DHT22;2695;49.444;11.054;2023-07-30T16:01:29;24.20;91.10
5346;DHT22;2695;49.444;11.054;2023-07-30T16:03:57;24.10;92.10